Saujil, Argentina
Current Conditions -  °F | °C
As of 1:00 PM on Friday 31 Oct 2014 (Local Time) from SANT Reporting Station
Scattered Clouds Scattered Clouds  
Wind Chill: 30°   Ceiling: Unl
Heat Index: 32°   Visibility: 6mi
Dew Point: 20°   Wind: 9mph
Humidity: 55%   Direction: 180°S
Pressure: 29.8"   Gusts: NA
Location:  28.18°S, 66.23°W
Report Text: SANT 311600Z 18008KT 9999 SCT025 SCT03030/20 Q1009
Loading
Personal Weather Stations






























Interactive Weather Map
Tropical Storm Tracking
New forecast layout! Learn more

10-Day Weather Forecast

Advertisements
Track Severe Weather on mobile